Aérodrome :
LOGIN :

S'inscrire | Disclaimer

   EN    FR    IT 

 










Légende :    VFR   VFR Marginal   IFR   IFR Intensif   IFR Très Intensif
Visi : 
Plafond : 
>= 8 km
>= 3000ft
5 à 8 km
1000 à 3000 ft
1500m à 5 km
500 à 1000 ft
800 à 1500m
200 à 500 ft
< 800m
< 200 ft
Symboles :   Orages  Brouillard  Fortes neiges  Fortes précipitations  Vent > 20 kt
SIGMETs :   Divers  Orages  Givrage  Turbulence  Onde Orograph.  Cendres Volcan.






- Altitude de l'aérodrome : 388 ft
- Code IATA : QYR


LFQB - Troyes Barberey

DERNIER METAR :
  • 041030Z AUTO 35006KT 270V050 9999 SCT039 20/09 Q1018

METARs EXPIRÉS :
  • 041000Z AUTO 35004KT 280V070 9999 FEW032 20/12 Q1018
  • 040930Z AUTO 31005KT 280V360 9999 BKN030 20/12 Q1018
  • 040900Z AUTO 35006KT 310V040 9999 BKN025 19/12 Q1018
  • 040830Z AUTO 02006KT 330V050 9999 FEW019 18/12 Q1018
  • 040800Z AUTO 01004KT 320V070 9999 FEW019 17/12 Q1018

TAF N/A



MET'MAP, la Météo Aéronautique d'un coup d'oeil ! - Copyright ORBIFLY Décembre 2007 - Disclaimer

ORBIFLY MET'MAP TEAM :

Programmation & Développement : Alexandra Zaïnal
Sur une idée originale de : Baudouin d'Aumeries
Assistance à la programmation : Marc-Olivier Méhu
Soutien technique & logistique : Manuel Goepfert

Contact : metmap@orbifly.com




SOURCES & CREDITS :

   NOAA